createdAt,value
2023-07-18T00:00:20.793Z,11.70
2023-07-18T00:02:49.614Z,13.15
2023-07-18T00:05:17.928Z,12.40
2023-07-18T00:07:46.409Z,11.48
2023-07-18T00:10:15.382Z,12.30
2023-07-18T00:12:43.688Z,10.93
2023-07-18T00:15:12.655Z,9.63
2023-07-18T00:17:42.570Z,10.63
2023-07-18T00:20:14.601Z,15.18
2023-07-18T00:22:43.546Z,14.55
2023-07-18T00:25:15.163Z,13.18
2023-07-18T00:27:43.496Z,10.07
2023-07-18T00:30:16.106Z,11.23
2023-07-18T00:32:46.282Z,12.95
2023-07-18T00:35:15.859Z,12.07
2023-07-18T00:37:45.728Z,9.63
2023-07-18T00:40:17.796Z,11.35
2023-07-18T00:42:49.411Z,14.70
2023-07-18T00:45:17.848Z,14.05
2023-07-18T00:47:48.366Z,10.98
2023-07-18T00:50:18.873Z,11.82
2023-07-18T00:52:52.240Z,11.57
2023-07-18T00:55:21.710Z,12.05
2023-07-18T00:57:51.816Z,11.00
2023-07-18T01:00:24.629Z,12.68
2023-07-18T01:02:53.518Z,11.25
2023-07-18T01:05:23.028Z,11.95
2023-07-18T01:07:51.432Z,9.82
2023-07-18T01:10:25.798Z,12.73
2023-07-18T01:13:01.351Z,13.07
2023-07-18T01:15:33.348Z,12.93
2023-07-18T01:18:08.567Z,16.08
2023-07-18T01:20:38.459Z,10.43
2023-07-18T01:23:06.956Z,13.43
2023-07-18T01:25:36.240Z,11.85
2023-07-18T01:28:05.185Z,10.80
2023-07-18T01:30:33.698Z,12.60
2023-07-18T01:33:02.096Z,10.80
2023-07-18T01:35:30.459Z,14.32
2023-07-18T01:38:00.583Z,12.82
2023-07-18T01:40:29.038Z,14.13
2023-07-18T01:42:58.638Z,11.55
2023-07-18T01:45:30.034Z,11.32
2023-07-18T01:47:59.179Z,12.02
2023-07-18T01:50:27.905Z,13.77
2023-07-18T01:52:56.270Z,12.23
2023-07-18T01:55:24.592Z,12.50
2023-07-18T01:57:52.925Z,12.73
2023-07-18T02:00:22.567Z,15.07
2023-07-18T02:02:55.860Z,10.20
2023-07-18T02:05:26.986Z,12.00
2023-07-18T02:07:55.361Z,12.35
2023-07-18T02:10:24.158Z,14.23
2023-07-18T02:12:55.051Z,13.45
2023-07-18T02:15:24.188Z,13.60
2023-07-18T02:17:53.366Z,12.50
2023-07-18T02:20:21.766Z,15.85
2023-07-18T02:22:50.477Z,12.48
2023-07-18T02:25:19.697Z,13.88
2023-07-18T02:27:48.076Z,10.40
2023-07-18T02:30:16.616Z,12.82
2023-07-18T02:32:46.409Z,10.90
2023-07-18T02:35:20.247Z,11.77
2023-07-18T02:37:49.288Z,11.73
2023-07-18T02:40:19.661Z,14.93
2023-07-18T02:42:48.303Z,11.68
2023-07-18T02:45:16.633Z,12.05
2023-07-18T02:47:45.060Z,11.07
2023-07-18T02:50:13.412Z,16.23
2023-07-18T02:52:41.750Z,12.80
2023-07-18T02:55:10.505Z,13.38
2023-07-18T02:57:39.832Z,13.48
2023-07-18T03:00:20.449Z,11.18
2023-07-18T03:02:51.589Z,12.40
2023-07-18T03:05:20.824Z,13.57
2023-07-18T03:07:49.116Z,14.00
2023-07-18T03:10:17.772Z,13.98
2023-07-18T03:12:47.392Z,15.93
2023-07-18T03:15:15.724Z,14.18
2023-07-18T03:17:44.406Z,11.43
2023-07-18T03:20:21.318Z,13.35
2023-07-18T03:22:51.219Z,12.15
2023-07-18T03:25:20.142Z,12.10
2023-07-18T03:27:49.304Z,17.65
2023-07-18T03:30:18.162Z,11.93
2023-07-18T03:32:46.605Z,14.77
2023-07-18T03:35:16.077Z,11.60
2023-07-18T03:37:44.689Z,17.40
2023-07-18T03:40:17.942Z,13.00
2023-07-18T03:42:47.539Z,10.67
2023-07-18T03:45:16.256Z,18.75
2023-07-18T03:47:45.490Z,15.20
2023-07-18T03:50:16.198Z,13.95
2023-07-18T03:52:44.769Z,10.90
2023-07-18T03:55:13.350Z,11.40
2023-07-18T03:57:42.049Z,16.67
2023-07-18T04:00:15.887Z,12.80
2023-07-18T04:02:46.842Z,11.82
2023-07-18T04:05:16.705Z,11.65
2023-07-18T04:07:46.043Z,11.95
2023-07-18T04:10:15.225Z,18.80
2023-07-18T04:12:44.249Z,14.57
2023-07-18T04:15:13.721Z,13.00
2023-07-18T04:17:42.227Z,10.70
2023-07-18T04:20:11.272Z,15.10
2023-07-18T04:22:39.612Z,14.70
2023-07-18T04:25:08.900Z,13.70
2023-07-18T04:27:37.173Z,11.07
2023-07-18T04:30:05.837Z,13.57
2023-07-18T04:32:34.123Z,12.73
2023-07-18T04:35:02.405Z,11.43
2023-07-18T04:37:30.721Z,12.73
2023-07-18T04:39:58.977Z,9.65
2023-07-18T04:42:27.257Z,13.27
2023-07-18T04:44:55.518Z,9.30
2023-07-18T04:47:23.968Z,16.88
2023-07-18T04:49:52.317Z,14.27
2023-07-18T04:52:20.577Z,13.20
2023-07-18T04:54:48.840Z,14.10
2023-07-18T04:57:19.672Z,14.23
2023-07-18T04:59:48.222Z,16.52
2023-07-18T05:02:16.445Z,11.93
2023-07-18T05:04:44.731Z,15.38
2023-07-18T05:07:12.975Z,15.40
2023-07-18T05:09:41.193Z,15.60
2023-07-18T05:12:09.877Z,16.35
2023-07-18T05:14:38.144Z,14.75
2023-07-18T05:17:06.459Z,13.90
2023-07-18T05:19:34.794Z,11.20
2023-07-18T05:22:03.067Z,13.52
2023-07-18T05:24:31.328Z,13.88
2023-07-18T05:26:59.579Z,15.23
2023-07-18T05:29:27.881Z,13.77
2023-07-18T05:31:56.201Z,13.40
2023-07-18T05:34:24.863Z,12.30
2023-07-18T05:36:53.329Z,14.30
2023-07-18T05:39:21.569Z,16.67
2023-07-18T05:41:49.785Z,14.80
2023-07-18T05:44:18.480Z,13.43
2023-07-18T05:46:46.720Z,12.13
2023-07-18T05:49:16.222Z,13.70
2023-07-18T05:51:44.489Z,14.00
2023-07-18T05:54:13.090Z,16.52
2023-07-18T05:56:41.396Z,14.00
2023-07-18T05:59:10.326Z,15.05
2023-07-18T06:01:39.014Z,13.13
2023-07-18T06:04:07.382Z,18.95
2023-07-18T06:06:36.697Z,12.98
2023-07-18T06:09:05.049Z,17.83
2023-07-18T06:11:33.297Z,18.05
2023-07-18T06:14:01.800Z,12.30
2023-07-18T06:16:30.072Z,14.85
2023-07-18T06:18:58.348Z,20.17
2023-07-18T06:21:28.442Z,15.35
2023-07-18T06:24:04.740Z,18.17
2023-07-18T06:26:33.462Z,16.58
2023-07-18T06:29:01.736Z,15.18
2023-07-18T06:31:30.356Z,14.50
2023-07-18T06:33:58.650Z,17.70
2023-07-18T06:36:27.904Z,18.52
2023-07-18T06:38:56.198Z,14.90
2023-07-18T06:41:24.448Z,14.15
2023-07-18T06:43:52.661Z,18.92
2023-07-18T06:46:20.954Z,15.88
2023-07-18T06:48:49.212Z,22.98
2023-07-18T06:51:17.799Z,16.98
2023-07-18T06:53:46.961Z,16.80
2023-07-18T06:56:15.168Z,15.48
2023-07-18T06:58:43.861Z,18.63
2023-07-18T07:01:12.554Z,15.77
2023-07-18T07:03:40.900Z,16.55
2023-07-18T07:06:13.737Z,17.02
2023-07-18T07:08:42.124Z,14.45
2023-07-18T07:11:11.985Z,17.95
2023-07-18T07:13:40.454Z,16.15
2023-07-18T07:16:09.154Z,12.50
2023-07-18T07:18:37.531Z,18.83
2023-07-18T07:21:07.427Z,15.55
2023-07-18T07:23:35.650Z,19.48
2023-07-18T07:26:04.129Z,13.60
2023-07-18T07:28:32.437Z,19.30
2023-07-18T07:31:05.276Z,15.45
2023-07-18T07:33:34.124Z,16.02
2023-07-18T07:36:02.413Z,16.10
2023-07-18T07:38:30.725Z,15.43
2023-07-18T07:40:59.289Z,15.20
2023-07-18T07:43:27.551Z,14.20
2023-07-18T07:45:55.868Z,15.82
2023-07-18T07:48:24.089Z,15.07
2023-07-18T07:50:52.466Z,18.25
2023-07-18T07:53:20.786Z,13.98
2023-07-18T07:55:49.032Z,22.30
2023-07-18T07:58:17.264Z,19.35
2023-07-18T08:00:45.589Z,13.70
2023-07-18T08:03:13.906Z,17.67
2023-07-18T08:05:42.128Z,12.90
2023-07-18T08:08:12.153Z,13.63
2023-07-18T08:10:40.450Z,15.38
2023-07-18T08:13:09.597Z,14.65
2023-07-18T08:15:37.953Z,14.30
2023-07-18T08:18:06.541Z,18.15
2023-07-18T08:20:34.865Z,17.67
2023-07-18T08:23:03.284Z,14.15
2023-07-18T08:25:32.580Z,15.10
2023-07-18T08:28:01.125Z,18.98
2023-07-18T08:30:29.359Z,15.40
2023-07-18T08:32:57.733Z,18.23
2023-07-18T08:35:26.070Z,17.30
2023-07-18T08:37:55.335Z,15.05
2023-07-18T08:40:23.668Z,16.80
2023-07-18T08:42:53.739Z,17.95
2023-07-18T08:45:24.862Z,14.48
2023-07-18T08:47:58.165Z,19.02
2023-07-18T08:50:28.314Z,17.23
2023-07-18T08:52:56.611Z,18.35
2023-07-18T08:55:25.401Z,17.65
2023-07-18T08:57:53.764Z,18.42
2023-07-18T09:00:22.342Z,17.13
2023-07-18T09:02:53.339Z,18.30
2023-07-18T09:05:33.516Z,15.77
2023-07-18T09:08:03.461Z,17.58
2023-07-18T09:10:32.815Z,14.90
2023-07-18T09:13:07.011Z,14.95
2023-07-18T09:15:39.223Z,15.93
2023-07-18T09:18:11.052Z,17.55
2023-07-18T09:20:39.916Z,15.95
2023-07-18T09:23:08.326Z,19.63
2023-07-18T09:25:41.988Z,16.45
2023-07-18T09:28:16.515Z,18.67
2023-07-18T09:30:44.804Z,14.70
2023-07-18T09:33:13.041Z,19.00
2023-07-18T09:35:42.283Z,15.82
2023-07-18T09:38:11.945Z,20.00
2023-07-18T09:40:40.748Z,20.70
2023-07-18T09:43:09.340Z,18.70
2023-07-18T09:45:38.888Z,15.10
2023-07-18T09:48:09.315Z,18.40
2023-07-18T09:50:43.621Z,18.50
2023-07-18T09:53:14.470Z,15.25
2023-07-18T09:55:43.554Z,22.30
2023-07-18T09:58:14.232Z,17.42
2023-07-18T10:00:47.426Z,13.98
2023-07-18T10:03:17.371Z,14.00
2023-07-18T10:05:46.675Z,21.17
2023-07-18T10:08:15.266Z,14.30
2023-07-18T10:10:43.613Z,17.15
2023-07-18T10:13:11.872Z,18.58
2023-07-18T10:16:29.298Z,18.23
2023-07-18T10:18:58.644Z,16.25
2023-07-18T10:21:32.439Z,21.95
2023-07-18T10:24:26.170Z,17.48
2023-07-18T10:26:56.265Z,17.85
2023-07-18T10:29:24.628Z,15.73
2023-07-18T10:31:55.241Z,14.70
2023-07-18T10:34:23.929Z,19.08
2023-07-18T10:37:03.208Z,16.30
2023-07-18T10:39:41.934Z,18.13
2023-07-18T10:42:21.704Z,16.67
2023-07-18T10:44:51.018Z,19.17
2023-07-18T10:47:21.277Z,17.60
2023-07-18T10:49:49.855Z,18.30
2023-07-18T10:52:19.324Z,25.40
2023-07-18T10:54:57.312Z,18.75
2023-07-18T10:57:30.816Z,23.10
2023-07-18T11:00:01.153Z,21.07
2023-07-18T11:02:36.337Z,15.95
2023-07-18T11:05:15.657Z,22.95
2023-07-18T11:07:53.664Z,17.58
2023-07-18T11:10:22.443Z,20.42
2023-07-18T11:12:54.236Z,17.48
2023-07-18T11:15:25.444Z,15.55
2023-07-18T11:17:55.621Z,21.63
2023-07-18T11:20:24.784Z,21.38
2023-07-18T11:22:53.321Z,18.27
2023-07-18T11:25:21.588Z,18.40
2023-07-18T11:27:51.488Z,19.02
2023-07-18T11:30:24.107Z,18.00
2023-07-18T11:32:52.442Z,18.30
2023-07-18T11:35:22.691Z,19.33
2023-07-18T11:37:55.796Z,17.63
2023-07-18T11:40:27.668Z,20.38
2023-07-18T11:43:02.786Z,18.70
2023-07-18T11:45:31.407Z,17.77
2023-07-18T11:48:01.251Z,15.43
2023-07-18T11:50:31.152Z,21.25
2023-07-18T11:53:01.258Z,21.73
2023-07-18T11:55:30.073Z,22.88
2023-07-18T11:57:58.466Z,21.70
2023-07-18T12:00:28.121Z,20.40
2023-07-18T12:02:56.507Z,14.95
2023-07-18T12:05:26.555Z,19.13
2023-07-18T12:07:54.786Z,20.27
2023-07-18T12:10:24.899Z,15.05
2023-07-18T12:12:54.438Z,18.92
2023-07-18T12:15:22.649Z,21.88
2023-07-18T12:17:50.928Z,17.00
2023-07-18T12:20:19.227Z,19.88
2023-07-18T12:22:47.499Z,15.35
2023-07-18T12:25:17.330Z,19.63
2023-07-18T12:27:45.584Z,23.95
2023-07-18T12:30:14.078Z,18.15
2023-07-18T12:32:42.692Z,16.98
2023-07-18T12:35:11.325Z,17.40
2023-07-18T12:37:39.583Z,20.45
2023-07-18T12:40:09.391Z,17.83
2023-07-18T12:42:37.771Z,17.13
2023-07-18T12:45:06.475Z,17.85
2023-07-18T12:47:34.733Z,18.45
2023-07-18T12:50:03.007Z,17.95
2023-07-18T12:52:31.251Z,15.57
2023-07-18T12:55:00.029Z,16.67
2023-07-18T12:57:32.392Z,15.60
2023-07-18T13:00:01.102Z,22.13
2023-07-18T13:02:30.475Z,19.42
2023-07-18T13:04:59.107Z,18.50
2023-07-18T13:07:27.356Z,20.45
2023-07-18T13:09:55.650Z,18.02
2023-07-18T13:12:23.943Z,20.52
2023-07-18T13:14:52.189Z,18.00
2023-07-18T13:17:22.870Z,20.60
2023-07-18T13:19:51.126Z,19.42
2023-07-18T13:22:19.355Z,17.60
2023-07-18T13:24:47.590Z,19.55
2023-07-18T13:27:15.805Z,18.85
2023-07-18T13:29:44.674Z,21.63
2023-07-18T13:32:12.951Z,20.27
2023-07-18T13:34:41.205Z,16.58
2023-07-18T13:37:09.499Z,18.95
2023-07-18T13:39:37.817Z,15.52
2023-07-18T13:42:06.510Z,17.80
2023-07-18T13:44:35.347Z,15.68
2023-07-18T13:47:04.851Z,20.38
2023-07-18T13:52:05.140Z,19.77
2023-07-18T13:54:33.360Z,21.77
2023-07-18T13:57:01.583Z,17.15
2023-07-18T13:59:29.816Z,18.95
2023-07-18T14:01:58.208Z,21.08
2023-07-18T14:04:26.716Z,22.73
2023-07-18T14:06:55.175Z,16.27
2023-07-18T14:09:23.598Z,23.40
2023-07-18T14:11:51.997Z,21.60
2023-07-18T14:14:20.283Z,20.80
2023-07-18T14:16:48.804Z,19.58
2023-07-18T14:19:17.207Z,16.15
2023-07-18T14:21:45.462Z,20.35
2023-07-18T14:24:13.870Z,18.10
2023-07-18T14:26:42.146Z,20.55
2023-07-18T14:29:10.680Z,23.95
2023-07-18T14:31:40.784Z,25.90
2023-07-18T14:34:09.184Z,20.75
2023-07-18T14:36:37.454Z,18.90
2023-07-18T14:39:06.601Z,21.65
2023-07-18T14:41:35.029Z,17.30
2023-07-18T14:44:03.307Z,14.23
2023-07-18T14:46:31.596Z,22.13
2023-07-18T14:48:59.928Z,21.77
2023-07-18T14:51:28.253Z,18.73
2023-07-18T14:53:56.504Z,18.08
2023-07-18T14:56:26.640Z,18.77
2023-07-18T14:58:54.885Z,20.90
2023-07-18T15:01:23.465Z,21.55
2023-07-18T15:03:52.095Z,19.88
2023-07-18T15:06:20.710Z,20.85
2023-07-18T15:08:52.783Z,16.45
2023-07-18T15:11:21.132Z,20.02
2023-07-18T15:13:49.386Z,19.60
2023-07-18T15:16:18.760Z,18.40
2023-07-18T15:18:47.324Z,18.23
2023-07-18T15:21:15.614Z,21.65
2023-07-18T15:23:43.928Z,17.30
2023-07-18T15:26:15.556Z,19.77
2023-07-18T15:28:44.549Z,23.20
2023-07-18T15:31:12.781Z,15.75
2023-07-18T15:33:41.155Z,17.63
2023-07-18T15:36:10.510Z,14.93
2023-07-18T15:38:38.967Z,16.80
2023-07-18T15:41:07.255Z,19.33
2023-07-18T15:43:36.522Z,17.42
2023-07-18T15:46:05.524Z,17.40
2023-07-18T15:48:33.792Z,18.85
2023-07-18T15:51:02.120Z,15.32
2023-07-18T15:53:30.930Z,14.95
2023-07-18T15:55:59.198Z,20.00
2023-07-18T15:58:27.504Z,13.55
2023-07-18T16:00:58.507Z,19.83
2023-07-18T16:03:26.888Z,18.00
2023-07-18T16:05:55.425Z,21.15
2023-07-18T16:08:23.820Z,16.08
2023-07-18T16:10:52.090Z,15.68
2023-07-18T16:13:20.486Z,15.13
2023-07-18T16:15:49.088Z,17.00
2023-07-18T16:18:17.889Z,16.13
2023-07-18T16:20:46.334Z,14.23
2023-07-18T16:23:14.801Z,13.48
2023-07-18T16:25:43.175Z,14.48
2023-07-18T16:28:11.528Z,19.02
2023-07-18T16:30:39.770Z,15.20
2023-07-18T16:33:08.343Z,17.60
2023-07-18T16:35:37.337Z,16.23
2023-07-18T16:38:05.616Z,15.50
2023-07-18T16:40:34.506Z,19.23
2023-07-18T16:43:02.760Z,19.20
2023-07-18T16:45:31.012Z,14.30
2023-07-18T16:47:59.275Z,16.67
2023-07-18T16:50:27.560Z,17.98
2023-07-18T16:52:55.870Z,15.43
2023-07-18T16:55:24.202Z,16.30
2023-07-18T16:57:52.442Z,16.45
2023-07-18T17:00:20.850Z,12.75
2023-07-18T17:02:49.140Z,14.20
2023-07-18T17:05:17.525Z,15.55
2023-07-18T17:07:45.973Z,15.05
2023-07-18T17:10:14.175Z,17.05
2023-07-18T17:12:42.510Z,18.48
2023-07-18T17:15:14.362Z,15.73
2023-07-18T17:17:42.663Z,18.45
2023-07-18T17:20:14.336Z,18.02
2023-07-18T17:22:43.064Z,16.13
2023-07-18T17:25:11.619Z,15.13
2023-07-18T17:27:39.880Z,18.15
2023-07-18T17:30:09.462Z,17.88
2023-07-18T17:32:38.462Z,15.45
2023-07-18T17:35:07.176Z,18.58
2023-07-18T17:37:35.618Z,15.13
2023-07-18T17:40:04.512Z,17.10
2023-07-18T17:42:32.754Z,16.13
2023-07-18T17:45:01.018Z,17.85
2023-07-18T17:47:29.759Z,17.92
2023-07-18T17:49:58.032Z,11.48
2023-07-18T17:52:27.886Z,20.48
2023-07-18T17:54:56.197Z,14.02
2023-07-18T17:57:25.477Z,16.73
2023-07-18T17:59:54.352Z,15.27
2023-07-18T18:02:22.740Z,14.20
2023-07-18T18:04:52.108Z,15.27
2023-07-18T18:07:20.417Z,18.27
2023-07-18T18:09:49.187Z,13.43
2023-07-18T18:12:17.497Z,15.77
2023-07-18T18:14:46.100Z,17.35
2023-07-18T18:17:14.374Z,15.98
2023-07-18T18:19:42.745Z,15.25
2023-07-18T18:22:11.420Z,17.63
2023-07-18T18:24:39.802Z,18.15
2023-07-18T18:27:08.690Z,14.90
2023-07-18T18:29:36.958Z,15.50
2023-07-18T18:32:06.560Z,11.40
2023-07-18T18:34:34.833Z,13.23
2023-07-18T18:37:03.095Z,15.80
2023-07-18T18:39:31.376Z,15.52
2023-07-18T18:41:59.749Z,12.57
2023-07-18T18:44:28.048Z,11.32
2023-07-18T18:46:56.572Z,13.40
2023-07-18T18:49:27.224Z,11.05
2023-07-18T18:51:56.579Z,10.95
2023-07-18T18:54:24.988Z,12.80
2023-07-18T18:56:54.704Z,12.98
2023-07-18T18:59:23.123Z,14.73
2023-07-18T19:01:52.072Z,13.68
2023-07-18T19:04:20.531Z,15.20
2023-07-18T19:06:48.838Z,12.95
2023-07-18T19:09:17.181Z,12.60
2023-07-18T19:11:45.430Z,11.57
2023-07-18T19:14:13.755Z,12.82
2023-07-18T19:16:42.115Z,15.50
2023-07-18T19:19:12.569Z,14.57
2023-07-18T19:21:40.777Z,15.25
2023-07-18T19:24:09.110Z,12.27
2023-07-18T19:26:37.464Z,11.93
2023-07-18T19:29:05.766Z,10.57
2023-07-18T19:31:34.121Z,12.48
2023-07-18T19:34:02.466Z,11.45
2023-07-18T19:36:30.736Z,11.73
2023-07-18T19:38:59.033Z,8.68
2023-07-18T19:41:27.319Z,12.50
2023-07-18T19:43:55.669Z,13.63
2023-07-18T19:46:24.833Z,8.95
2023-07-18T19:48:53.124Z,9.93
2023-07-18T19:51:22.376Z,13.13
2023-07-18T19:53:50.831Z,10.43
2023-07-18T19:56:19.145Z,13.23
2023-07-18T19:58:47.389Z,12.20
2023-07-18T20:01:17.357Z,13.98
2023-07-18T20:03:58.658Z,9.98
2023-07-18T20:06:29.856Z,12.02
2023-07-18T20:08:58.842Z,14.32
2023-07-18T20:11:27.145Z,9.57
2023-07-18T20:13:55.646Z,12.38
2023-07-18T20:16:24.001Z,14.32
2023-07-18T20:18:56.301Z,9.07
2023-07-18T20:21:27.131Z,9.82
2023-07-18T20:23:55.440Z,11.52
2023-07-18T20:26:24.024Z,12.02
2023-07-18T20:28:52.402Z,10.57
2023-07-18T20:31:21.179Z,14.93
2023-07-18T20:33:50.718Z,9.18
2023-07-18T20:36:18.980Z,10.20
2023-07-18T20:38:48.159Z,9.05
2023-07-18T20:41:16.663Z,12.40
2023-07-18T20:43:44.902Z,13.32
2023-07-18T20:46:14.982Z,10.40
2023-07-18T20:48:43.275Z,10.65
2023-07-18T20:51:11.612Z,13.43
2023-07-18T20:53:39.991Z,9.43
2023-07-18T20:56:08.576Z,9.43
2023-07-18T20:58:37.039Z,9.63
2023-07-18T21:01:05.568Z,11.38
2023-07-18T21:03:33.965Z,11.68
2023-07-18T21:06:02.336Z,13.40
2023-07-18T21:08:30.665Z,12.63
2023-07-18T21:10:58.994Z,11.57
2023-07-18T21:13:27.371Z,10.80
2023-07-18T21:15:55.694Z,11.30
2023-07-18T21:18:23.995Z,12.70
2023-07-18T21:20:52.278Z,6.53
2023-07-18T21:23:22.198Z,9.07
2023-07-18T21:25:50.776Z,9.45
2023-07-18T21:28:19.039Z,8.55
2023-07-18T21:30:47.321Z,7.95
2023-07-18T21:33:15.528Z,9.20
2023-07-18T21:35:43.782Z,7.85
2023-07-18T21:38:12.029Z,8.25
2023-07-18T21:40:40.271Z,12.40
2023-07-18T21:43:08.746Z,8.35
2023-07-18T21:45:37.451Z,10.50
2023-07-18T21:48:06.025Z,7.78
2023-07-18T21:50:34.354Z,9.80
2023-07-18T21:53:02.641Z,7.35
2023-07-18T21:55:31.006Z,8.60
2023-07-18T21:57:59.287Z,7.53
2023-07-18T22:00:27.591Z,10.20
2023-07-18T22:02:57.031Z,7.35
2023-07-18T22:05:25.597Z,9.70
2023-07-18T22:07:53.790Z,7.38
2023-07-18T22:10:22.117Z,9.27
2023-07-18T22:12:50.371Z,7.93
2023-07-18T22:15:20.740Z,7.88
2023-07-18T22:17:50.089Z,10.45
2023-07-18T22:20:18.414Z,8.43
2023-07-18T22:22:46.683Z,10.18
2023-07-18T22:25:14.971Z,7.53
2023-07-18T22:27:43.283Z,7.10
2023-07-18T22:30:11.828Z,10.70
2023-07-18T22:32:40.078Z,9.55
2023-07-18T22:35:09.049Z,10.85
2023-07-18T22:37:37.787Z,8.80
2023-07-18T22:40:06.482Z,9.50
2023-07-18T22:42:34.771Z,9.88
2023-07-18T22:45:03.000Z,7.57
2023-07-18T22:47:31.263Z,8.85
2023-07-18T22:49:59.486Z,7.97
2023-07-18T22:52:27.745Z,9.02
2023-07-18T22:54:55.996Z,10.75
2023-07-18T22:57:24.590Z,7.78
2023-07-18T22:59:53.749Z,9.80
2023-07-18T23:02:22.264Z,8.40
2023-07-18T23:04:50.645Z,7.22
2023-07-18T23:07:18.868Z,8.75
2023-07-18T23:09:47.166Z,7.07
2023-07-18T23:12:17.054Z,9.10
2023-07-18T23:14:45.376Z,9.95
2023-07-18T23:17:15.198Z,9.93
2023-07-18T23:19:44.044Z,7.97
2023-07-18T23:22:12.304Z,8.60
2023-07-18T23:24:40.580Z,10.32
2023-07-18T23:27:09.085Z,8.75
2023-07-18T23:29:37.398Z,10.55
2023-07-18T23:32:05.864Z,9.55
2023-07-18T23:34:34.167Z,7.93
2023-07-18T23:37:02.432Z,9.00
2023-07-18T23:39:30.720Z,8.65
2023-07-18T23:41:58.930Z,9.73
2023-07-18T23:44:27.172Z,8.32
2023-07-18T23:46:55.449Z,6.57
2023-07-18T23:49:23.784Z,8.85
2023-07-18T23:51:52.173Z,10.07
2023-07-18T23:54:20.413Z,8.63
2023-07-18T23:56:48.618Z,9.63
2023-07-18T23:59:17.950Z,7.47
